sensor_id;sensor_type;location;lat;lon;timestamp;P1;durP1;ratioP1;P2;durP2;ratioP2
68921;SDS011;55959;51.244;5.724;2024-02-14T00:00:18;2.83;;;1.50;;
68921;SDS011;55959;51.244;5.724;2024-02-14T00:02:45;1.67;;;1.33;;
68921;SDS011;55959;51.244;5.724;2024-02-14T00:05:14;1.90;;;1.37;;
68921;SDS011;55959;51.244;5.724;2024-02-14T00:07:41;3.03;;;1.47;;
68921;SDS011;55959;51.244;5.724;2024-02-14T00:10:07;1.70;;;1.47;;
68921;SDS011;55959;51.244;5.724;2024-02-14T00:12:34;1.30;;;1.20;;
68921;SDS011;55959;51.244;5.724;2024-02-14T00:15:07;3.37;;;1.70;;
68921;SDS011;55959;51.244;5.724;2024-02-14T00:17:33;4.00;;;1.20;;
68921;SDS011;55959;51.244;5.724;2024-02-14T00:20:00;1.97;;;1.43;;
68921;SDS011;55959;51.244;5.724;2024-02-14T00:22:29;1.33;;;1.10;;
68921;SDS011;55959;51.244;5.724;2024-02-14T00:24:56;2.20;;;1.27;;
68921;SDS011;55959;51.244;5.724;2024-02-14T00:27:21;2.37;;;1.33;;
68921;SDS011;55959;51.244;5.724;2024-02-14T00:29:47;1.67;;;1.30;;
68921;SDS011;55959;51.244;5.724;2024-02-14T00:32:13;2.27;;;1.60;;
68921;SDS011;55959;51.244;5.724;2024-02-14T00:34:39;2.40;;;1.60;;
68921;SDS011;55959;51.244;5.724;2024-02-14T00:37:05;1.50;;;1.20;;
68921;SDS011;55959;51.244;5.724;2024-02-14T00:39:31;1.60;;;1.30;;
68921;SDS011;55959;51.244;5.724;2024-02-14T00:41:57;1.83;;;1.40;;
68921;SDS011;55959;51.244;5.724;2024-02-14T00:44:22;3.00;;;1.30;;
68921;SDS011;55959;51.244;5.724;2024-02-14T00:46:48;2.53;;;1.53;;
68921;SDS011;55959;51.244;5.724;2024-02-14T00:49:14;2.03;;;1.50;;
68921;SDS011;55959;51.244;5.724;2024-02-14T00:51:40;1.57;;;1.20;;
68921;SDS011;55959;51.244;5.724;2024-02-14T00:54:06;1.70;;;1.60;;
68921;SDS011;55959;51.244;5.724;2024-02-14T00:56:33;1.87;;;1.67;;
68921;SDS011;55959;51.244;5.724;2024-02-14T00:58:59;1.67;;;1.33;;
68921;SDS011;55959;51.244;5.724;2024-02-14T01:01:25;2.63;;;1.57;;
68921;SDS011;55959;51.244;5.724;2024-02-14T01:03:52;1.30;;;1.20;;
68921;SDS011;55959;51.244;5.724;2024-02-14T01:06:17;2.00;;;1.50;;
68921;SDS011;55959;51.244;5.724;2024-02-14T01:08:44;2.57;;;1.50;;
68921;SDS011;55959;51.244;5.724;2024-02-14T01:11:11;2.47;;;1.60;;
68921;SDS011;55959;51.244;5.724;2024-02-14T01:13:37;1.83;;;1.43;;
68921;SDS011;55959;51.244;5.724;2024-02-14T01:16:03;1.53;;;1.20;;
68921;SDS011;55959;51.244;5.724;2024-02-14T01:18:29;2.43;;;1.40;;
68921;SDS011;55959;51.244;5.724;2024-02-14T01:20:56;2.43;;;1.67;;
68921;SDS011;55959;51.244;5.724;2024-02-14T01:23:23;1.70;;;1.40;;
68921;SDS011;55959;51.244;5.724;2024-02-14T01:25:50;1.60;;;1.50;;
68921;SDS011;55959;51.244;5.724;2024-02-14T01:28:15;3.73;;;1.50;;
68921;SDS011;55959;51.244;5.724;2024-02-14T01:30:42;1.70;;;1.40;;
68921;SDS011;55959;51.244;5.724;2024-02-14T01:33:08;1.87;;;1.60;;
68921;SDS011;55959;51.244;5.724;2024-02-14T01:35:34;1.60;;;1.30;;
68921;SDS011;55959;51.244;5.724;2024-02-14T01:38:00;1.53;;;1.30;;
68921;SDS011;55959;51.244;5.724;2024-02-14T01:40:28;2.17;;;1.60;;
68921;SDS011;55959;51.244;5.724;2024-02-14T01:42:54;3.47;;;1.90;;
68921;SDS011;55959;51.244;5.724;2024-02-14T01:45:20;1.73;;;1.60;;
68921;SDS011;55959;51.244;5.724;2024-02-14T01:47:47;2.80;;;1.33;;
68921;SDS011;55959;51.244;5.724;2024-02-14T01:50:15;3.17;;;1.63;;
68921;SDS011;55959;51.244;5.724;2024-02-14T01:52:41;1.73;;;1.60;;
68921;SDS011;55959;51.244;5.724;2024-02-14T01:55:09;2.17;;;1.80;;
68921;SDS011;55959;51.244;5.724;2024-02-14T01:57:36;1.60;;;1.40;;
68921;SDS011;55959;51.244;5.724;2024-02-14T02:00:04;2.27;;;1.70;;
68921;SDS011;55959;51.244;5.724;2024-02-14T02:02:34;2.93;;;1.60;;
68921;SDS011;55959;51.244;5.724;2024-02-14T02:05:04;1.60;;;1.33;;
68921;SDS011;55959;51.244;5.724;2024-02-14T02:07:31;2.47;;;1.60;;
68921;SDS011;55959;51.244;5.724;2024-02-14T02:09:58;2.67;;;1.57;;
68921;SDS011;55959;51.244;5.724;2024-02-14T02:12:24;2.33;;;1.83;;
68921;SDS011;55959;51.244;5.724;2024-02-14T02:14:52;2.13;;;1.63;;
68921;SDS011;55959;51.244;5.724;2024-02-14T02:17:18;2.80;;;1.67;;
68921;SDS011;55959;51.244;5.724;2024-02-14T02:19:46;2.93;;;1.70;;
68921;SDS011;55959;51.244;5.724;2024-02-14T02:22:11;2.17;;;1.67;;
68921;SDS011;55959;51.244;5.724;2024-02-14T02:24:37;1.83;;;1.63;;
68921;SDS011;55959;51.244;5.724;2024-02-14T02:27:03;7.00;;;2.10;;
68921;SDS011;55959;51.244;5.724;2024-02-14T02:29:29;2.03;;;1.50;;
68921;SDS011;55959;51.244;5.724;2024-02-14T02:31:57;3.50;;;2.07;;
68921;SDS011;55959;51.244;5.724;2024-02-14T02:34:23;4.60;;;1.77;;
68921;SDS011;55959;51.244;5.724;2024-02-14T02:36:49;2.83;;;1.70;;
68921;SDS011;55959;51.244;5.724;2024-02-14T02:39:16;2.33;;;1.80;;
68921;SDS011;55959;51.244;5.724;2024-02-14T02:41:42;3.63;;;1.70;;
68921;SDS011;55959;51.244;5.724;2024-02-14T02:44:12;3.97;;;1.97;;
68921;SDS011;55959;51.244;5.724;2024-02-14T02:46:38;2.03;;;1.83;;
68921;SDS011;55959;51.244;5.724;2024-02-14T02:49:04;2.53;;;2.00;;
68921;SDS011;55959;51.244;5.724;2024-02-14T02:51:29;2.77;;;2.20;;
68921;SDS011;55959;51.244;5.724;2024-02-14T02:53:55;2.47;;;2.27;;
68921;SDS011;55959;51.244;5.724;2024-02-14T02:56:21;2.67;;;2.20;;
68921;SDS011;55959;51.244;5.724;2024-02-14T02:58:47;4.50;;;1.87;;
68921;SDS011;55959;51.244;5.724;2024-02-14T03:01:13;2.50;;;1.90;;
68921;SDS011;55959;51.244;5.724;2024-02-14T03:03:39;3.87;;;2.07;;
68921;SDS011;55959;51.244;5.724;2024-02-14T03:06:06;3.83;;;1.97;;
68921;SDS011;55959;51.244;5.724;2024-02-14T03:08:32;4.10;;;2.20;;
68921;SDS011;55959;51.244;5.724;2024-02-14T03:11:04;2.20;;;2.00;;
68921;SDS011;55959;51.244;5.724;2024-02-14T03:13:33;2.07;;;1.80;;
68921;SDS011;55959;51.244;5.724;2024-02-14T03:16:00;3.20;;;1.90;;
68921;SDS011;55959;51.244;5.724;2024-02-14T03:18:26;3.00;;;2.27;;
68921;SDS011;55959;51.244;5.724;2024-02-14T03:20:52;3.10;;;2.27;;
68921;SDS011;55959;51.244;5.724;2024-02-14T03:23:21;3.37;;;2.17;;
68921;SDS011;55959;51.244;5.724;2024-02-14T03:25:47;3.33;;;2.30;;
68921;SDS011;55959;51.244;5.724;2024-02-14T03:28:13;2.80;;;2.20;;
68921;SDS011;55959;51.244;5.724;2024-02-14T03:30:39;3.03;;;1.90;;
68921;SDS011;55959;51.244;5.724;2024-02-14T03:33:05;2.57;;;2.17;;
68921;SDS011;55959;51.244;5.724;2024-02-14T03:35:33;3.10;;;2.37;;
68921;SDS011;55959;51.244;5.724;2024-02-14T03:38:02;3.17;;;2.37;;
68921;SDS011;55959;51.244;5.724;2024-02-14T03:40:28;3.97;;;2.20;;
68921;SDS011;55959;51.244;5.724;2024-02-14T03:42:55;2.97;;;2.20;;
68921;SDS011;55959;51.244;5.724;2024-02-14T03:45:22;2.40;;;2.07;;
68921;SDS011;55959;51.244;5.724;2024-02-14T03:47:48;3.77;;;2.30;;
68921;SDS011;55959;51.244;5.724;2024-02-14T03:50:14;2.33;;;2.10;;
68921;SDS011;55959;51.244;5.724;2024-02-14T03:52:41;2.60;;;2.20;;
68921;SDS011;55959;51.244;5.724;2024-02-14T03:55:10;3.00;;;2.27;;
68921;SDS011;55959;51.244;5.724;2024-02-14T03:57:38;2.00;;;1.87;;
68921;SDS011;55959;51.244;5.724;2024-02-14T04:00:05;2.67;;;2.07;;
68921;SDS011;55959;51.244;5.724;2024-02-14T04:02:35;2.40;;;2.20;;
68921;SDS011;55959;51.244;5.724;2024-02-14T04:05:01;2.90;;;2.10;;
68921;SDS011;55959;51.244;5.724;2024-02-14T04:07:32;2.70;;;1.97;;
68921;SDS011;55959;51.244;5.724;2024-02-14T04:09:59;2.40;;;2.10;;
68921;SDS011;55959;51.244;5.724;2024-02-14T04:12:25;2.83;;;2.27;;
68921;SDS011;55959;51.244;5.724;2024-02-14T04:14:51;2.30;;;2.10;;
68921;SDS011;55959;51.244;5.724;2024-02-14T04:17:17;2.53;;;2.20;;
68921;SDS011;55959;51.244;5.724;2024-02-14T04:19:42;3.23;;;2.43;;
68921;SDS011;55959;51.244;5.724;2024-02-14T04:22:08;2.17;;;1.97;;
68921;SDS011;55959;51.244;5.724;2024-02-14T04:24:34;2.70;;;2.03;;
68921;SDS011;55959;51.244;5.724;2024-02-14T04:27:00;3.00;;;2.43;;
68921;SDS011;55959;51.244;5.724;2024-02-14T04:29:28;2.70;;;2.50;;
68921;SDS011;55959;51.244;5.724;2024-02-14T04:31:55;2.50;;;2.30;;
68921;SDS011;55959;51.244;5.724;2024-02-14T04:34:21;3.30;;;2.50;;
68921;SDS011;55959;51.244;5.724;2024-02-14T04:36:48;3.30;;;2.33;;
68921;SDS011;55959;51.244;5.724;2024-02-14T04:39:13;2.33;;;2.13;;
68921;SDS011;55959;51.244;5.724;2024-02-14T04:41:39;2.90;;;2.60;;
68921;SDS011;55959;51.244;5.724;2024-02-14T04:44:05;3.83;;;2.60;;
68921;SDS011;55959;51.244;5.724;2024-02-14T04:46:34;2.60;;;2.40;;
68921;SDS011;55959;51.244;5.724;2024-02-14T04:49:01;3.70;;;2.63;;
68921;SDS011;55959;51.244;5.724;2024-02-14T04:51:30;3.17;;;2.50;;
68921;SDS011;55959;51.244;5.724;2024-02-14T04:53:56;3.70;;;3.03;;
68921;SDS011;55959;51.244;5.724;2024-02-14T04:56:26;3.07;;;2.77;;
68921;SDS011;55959;51.244;5.724;2024-02-14T04:58:55;3.80;;;2.63;;
68921;SDS011;55959;51.244;5.724;2024-02-14T05:01:21;3.03;;;2.43;;
68921;SDS011;55959;51.244;5.724;2024-02-14T05:03:47;3.23;;;2.93;;
68921;SDS011;55959;51.244;5.724;2024-02-14T05:06:14;3.33;;;3.03;;
68921;SDS011;55959;51.244;5.724;2024-02-14T05:08:40;3.27;;;2.97;;
68921;SDS011;55959;51.244;5.724;2024-02-14T05:11:06;4.20;;;2.90;;
68921;SDS011;55959;51.244;5.724;2024-02-14T05:13:32;4.13;;;3.27;;
68921;SDS011;55959;51.244;5.724;2024-02-14T05:15:58;3.93;;;2.57;;
68921;SDS011;55959;51.244;5.724;2024-02-14T05:18:27;5.43;;;3.77;;
68921;SDS011;55959;51.244;5.724;2024-02-14T05:20:53;4.57;;;3.20;;
68921;SDS011;55959;51.244;5.724;2024-02-14T05:23:19;5.27;;;2.93;;
68921;SDS011;55959;51.244;5.724;2024-02-14T05:25:44;3.37;;;3.07;;
68921;SDS011;55959;51.244;5.724;2024-02-14T05:28:10;3.50;;;3.20;;
68921;SDS011;55959;51.244;5.724;2024-02-14T05:30:38;3.33;;;3.03;;
68921;SDS011;55959;51.244;5.724;2024-02-14T05:33:05;3.47;;;2.80;;
68921;SDS011;55959;51.244;5.724;2024-02-14T05:35:31;3.40;;;3.07;;
68921;SDS011;55959;51.244;5.724;2024-02-14T05:37:57;3.50;;;2.87;;
68921;SDS011;55959;51.244;5.724;2024-02-14T05:40:23;4.40;;;2.90;;
68921;SDS011;55959;51.244;5.724;2024-02-14T05:42:49;3.47;;;2.70;;
68921;SDS011;55959;51.244;5.724;2024-02-14T05:45:15;3.33;;;2.97;;
68921;SDS011;55959;51.244;5.724;2024-02-14T05:47:41;3.03;;;2.77;;
68921;SDS011;55959;51.244;5.724;2024-02-14T05:50:08;4.17;;;3.00;;
68921;SDS011;55959;51.244;5.724;2024-02-14T05:52:36;3.30;;;3.00;;
68921;SDS011;55959;51.244;5.724;2024-02-14T05:55:03;4.20;;;3.07;;
68921;SDS011;55959;51.244;5.724;2024-02-14T05:57:30;3.57;;;3.10;;
68921;SDS011;55959;51.244;5.724;2024-02-14T05:59:55;4.93;;;3.20;;
68921;SDS011;55959;51.244;5.724;2024-02-14T06:02:21;4.03;;;3.33;;
68921;SDS011;55959;51.244;5.724;2024-02-14T06:04:47;3.90;;;3.43;;
68921;SDS011;55959;51.244;5.724;2024-02-14T06:07:13;5.20;;;3.43;;
68921;SDS011;55959;51.244;5.724;2024-02-14T06:09:38;4.43;;;3.13;;
68921;SDS011;55959;51.244;5.724;2024-02-14T06:12:04;4.60;;;3.30;;
68921;SDS011;55959;51.244;5.724;2024-02-14T06:14:31;5.07;;;3.93;;
68921;SDS011;55959;51.244;5.724;2024-02-14T06:16:59;3.40;;;2.97;;
68921;SDS011;55959;51.244;5.724;2024-02-14T06:19:26;10.83;;;4.07;;
68921;SDS011;55959;51.244;5.724;2024-02-14T06:21:52;3.63;;;3.20;;
68921;SDS011;55959;51.244;5.724;2024-02-14T06:24:18;3.60;;;3.30;;
68921;SDS011;55959;51.244;5.724;2024-02-14T06:26:44;4.80;;;3.40;;
68921;SDS011;55959;51.244;5.724;2024-02-14T06:29:11;3.83;;;3.23;;
68921;SDS011;55959;51.244;5.724;2024-02-14T06:31:37;6.10;;;3.40;;
68921;SDS011;55959;51.244;5.724;2024-02-14T06:34:02;4.33;;;3.40;;
68921;SDS011;55959;51.244;5.724;2024-02-14T06:36:28;5.57;;;3.30;;
68921;SDS011;55959;51.244;5.724;2024-02-14T06:38:54;4.20;;;3.70;;
68921;SDS011;55959;51.244;5.724;2024-02-14T06:41:20;4.07;;;3.40;;
68921;SDS011;55959;51.244;5.724;2024-02-14T06:43:46;3.77;;;3.07;;
68921;SDS011;55959;51.244;5.724;2024-02-14T06:46:11;5.10;;;3.43;;
68921;SDS011;55959;51.244;5.724;2024-02-14T06:48:37;6.77;;;3.60;;
68921;SDS011;55959;51.244;5.724;2024-02-14T06:51:03;3.63;;;3.33;;
68921;SDS011;55959;51.244;5.724;2024-02-14T06:53:31;5.53;;;3.33;;
68921;SDS011;55959;51.244;5.724;2024-02-14T06:55:57;4.53;;;3.40;;
68921;SDS011;55959;51.244;5.724;2024-02-14T06:58:23;4.90;;;3.40;;
68921;SDS011;55959;51.244;5.724;2024-02-14T07:00:49;4.03;;;3.23;;
68921;SDS011;55959;51.244;5.724;2024-02-14T07:03:15;5.93;;;3.33;;
68921;SDS011;55959;51.244;5.724;2024-02-14T07:05:41;4.13;;;3.70;;
68921;SDS011;55959;51.244;5.724;2024-02-14T07:08:07;4.50;;;3.90;;
68921;SDS011;55959;51.244;5.724;2024-02-14T07:10:32;4.70;;;4.13;;
68921;SDS011;55959;51.244;5.724;2024-02-14T07:12:58;4.00;;;3.53;;
68921;SDS011;55959;51.244;5.724;2024-02-14T07:15:24;4.77;;;4.07;;
68921;SDS011;55959;51.244;5.724;2024-02-14T07:17:53;5.03;;;3.70;;
68921;SDS011;55959;51.244;5.724;2024-02-14T07:20:20;4.67;;;4.13;;
68921;SDS011;55959;51.244;5.724;2024-02-14T07:22:47;6.13;;;3.97;;
68921;SDS011;55959;51.244;5.724;2024-02-14T07:25:18;5.23;;;4.27;;
68921;SDS011;55959;51.244;5.724;2024-02-14T07:27:46;5.30;;;3.40;;
68921;SDS011;55959;51.244;5.724;2024-02-14T07:30:14;4.60;;;4.03;;
68921;SDS011;55959;51.244;5.724;2024-02-14T07:32:42;4.37;;;3.70;;
68921;SDS011;55959;51.244;5.724;2024-02-14T07:35:09;4.40;;;4.00;;
68921;SDS011;55959;51.244;5.724;2024-02-14T07:37:34;4.20;;;3.60;;
68921;SDS011;55959;51.244;5.724;2024-02-14T07:40:00;6.23;;;3.63;;
68921;SDS011;55959;51.244;5.724;2024-02-14T07:42:26;3.73;;;3.43;;
68921;SDS011;55959;51.244;5.724;2024-02-14T07:44:52;3.47;;;3.17;;
68921;SDS011;55959;51.244;5.724;2024-02-14T07:47:18;5.77;;;3.60;;
68921;SDS011;55959;51.244;5.724;2024-02-14T07:49:44;4.47;;;3.97;;
68921;SDS011;55959;51.244;5.724;2024-02-14T07:52:10;3.80;;;3.10;;
68921;SDS011;55959;51.244;5.724;2024-02-14T07:54:35;3.90;;;3.37;;
68921;SDS011;55959;51.244;5.724;2024-02-14T07:57:02;3.90;;;3.53;;
68921;SDS011;55959;51.244;5.724;2024-02-14T07:59:28;3.57;;;3.27;;
68921;SDS011;55959;51.244;5.724;2024-02-14T08:01:53;4.80;;;3.50;;
68921;SDS011;55959;51.244;5.724;2024-02-14T08:04:19;4.00;;;3.33;;
68921;SDS011;55959;51.244;5.724;2024-02-14T08:06:46;3.70;;;2.90;;
68921;SDS011;55959;51.244;5.724;2024-02-14T08:09:14;3.60;;;3.20;;
68921;SDS011;55959;51.244;5.724;2024-02-14T08:11:40;3.63;;;2.83;;
68921;SDS011;55959;51.244;5.724;2024-02-14T08:14:06;4.17;;;3.40;;
68921;SDS011;55959;51.244;5.724;2024-02-14T08:16:32;4.23;;;2.90;;
68921;SDS011;55959;51.244;5.724;2024-02-14T08:18:58;3.73;;;2.60;;
68921;SDS011;55959;51.244;5.724;2024-02-14T08:21:27;4.17;;;3.13;;
68921;SDS011;55959;51.244;5.724;2024-02-14T08:23:53;3.53;;;2.60;;
68921;SDS011;55959;51.244;5.724;2024-02-14T08:26:23;3.70;;;3.20;;
68921;SDS011;55959;51.244;5.724;2024-02-14T08:28:49;5.00;;;2.73;;
68921;SDS011;55959;51.244;5.724;2024-02-14T08:31:15;3.77;;;2.87;;
68921;SDS011;55959;51.244;5.724;2024-02-14T08:33:41;3.90;;;2.97;;
68921;SDS011;55959;51.244;5.724;2024-02-14T08:36:07;2.83;;;2.50;;
68921;SDS011;55959;51.244;5.724;2024-02-14T08:38:36;4.97;;;2.67;;
68921;SDS011;55959;51.244;5.724;2024-02-14T08:41:02;6.60;;;2.87;;
68921;SDS011;55959;51.244;5.724;2024-02-14T08:43:29;5.73;;;2.97;;
68921;SDS011;55959;51.244;5.724;2024-02-14T08:45:55;3.40;;;2.40;;
68921;SDS011;55959;51.244;5.724;2024-02-14T08:48:22;4.07;;;2.37;;
68921;SDS011;55959;51.244;5.724;2024-02-14T08:50:48;4.83;;;2.30;;
68921;SDS011;55959;51.244;5.724;2024-02-14T08:53:15;3.90;;;2.33;;
68921;SDS011;55959;51.244;5.724;2024-02-14T08:55:41;3.57;;;2.30;;
68921;SDS011;55959;51.244;5.724;2024-02-14T08:58:07;3.00;;;2.43;;
68921;SDS011;55959;51.244;5.724;2024-02-14T09:00:36;3.20;;;2.40;;
68921;SDS011;55959;51.244;5.724;2024-02-14T09:03:04;3.03;;;2.40;;
68921;SDS011;55959;51.244;5.724;2024-02-14T09:05:30;3.40;;;3.07;;
68921;SDS011;55959;51.244;5.724;2024-02-14T09:07:56;5.17;;;2.90;;
68921;SDS011;55959;51.244;5.724;2024-02-14T09:10:22;3.70;;;2.70;;
68921;SDS011;55959;51.244;5.724;2024-02-14T09:12:48;6.07;;;2.97;;
68921;SDS011;55959;51.244;5.724;2024-02-14T09:15:14;3.77;;;2.50;;
68921;SDS011;55959;51.244;5.724;2024-02-14T09:17:40;3.67;;;2.97;;
68921;SDS011;55959;51.244;5.724;2024-02-14T09:20:07;3.93;;;2.67;;
68921;SDS011;55959;51.244;5.724;2024-02-14T09:22:35;3.83;;;2.50;;
68921;SDS011;55959;51.244;5.724;2024-02-14T09:25:01;2.97;;;2.27;;
68921;SDS011;55959;51.244;5.724;2024-02-14T09:27:31;3.87;;;3.07;;
68921;SDS011;55959;51.244;5.724;2024-02-14T09:29:58;4.73;;;2.80;;
68921;SDS011;55959;51.244;5.724;2024-02-14T09:32:24;4.83;;;2.80;;
68921;SDS011;55959;51.244;5.724;2024-02-14T09:34:50;4.20;;;2.60;;
68921;SDS011;55959;51.244;5.724;2024-02-14T09:37:16;4.30;;;2.73;;
68921;SDS011;55959;51.244;5.724;2024-02-14T09:39:42;4.00;;;2.83;;
68921;SDS011;55959;51.244;5.724;2024-02-14T09:42:09;4.63;;;3.03;;
68921;SDS011;55959;51.244;5.724;2024-02-14T09:44:39;2.80;;;2.37;;
68921;SDS011;55959;51.244;5.724;2024-02-14T09:47:05;4.17;;;2.70;;
68921;SDS011;55959;51.244;5.724;2024-02-14T09:49:32;2.37;;;2.17;;
68921;SDS011;55959;51.244;5.724;2024-02-14T09:52:01;2.97;;;2.60;;
68921;SDS011;55959;51.244;5.724;2024-02-14T09:54:28;2.53;;;2.30;;
68921;SDS011;55959;51.244;5.724;2024-02-14T09:56:57;4.50;;;2.43;;
68921;SDS011;55959;51.244;5.724;2024-02-14T09:59:23;3.07;;;2.30;;
68921;SDS011;55959;51.244;5.724;2024-02-14T10:01:49;3.17;;;2.30;;
68921;SDS011;55959;51.244;5.724;2024-02-14T10:04:16;2.80;;;2.30;;
68921;SDS011;55959;51.244;5.724;2024-02-14T10:06:44;4.33;;;2.70;;
68921;SDS011;55959;51.244;5.724;2024-02-14T10:09:10;2.77;;;2.20;;
68921;SDS011;55959;51.244;5.724;2024-02-14T10:11:36;2.60;;;2.40;;
68921;SDS011;55959;51.244;5.724;2024-02-14T10:14:04;2.83;;;2.43;;
68921;SDS011;55959;51.244;5.724;2024-02-14T10:16:34;2.27;;;1.90;;
68921;SDS011;55959;51.244;5.724;2024-02-14T10:19:00;5.27;;;2.40;;
68921;SDS011;55959;51.244;5.724;2024-02-14T10:21:27;2.23;;;2.03;;
68921;SDS011;55959;51.244;5.724;2024-02-14T10:23:53;2.30;;;2.10;;
68921;SDS011;55959;51.244;5.724;2024-02-14T10:26:22;3.30;;;2.30;;
68921;SDS011;55959;51.244;5.724;2024-02-14T10:28:48;2.77;;;2.53;;
68921;SDS011;55959;51.244;5.724;2024-02-14T10:31:16;2.83;;;2.10;;
68921;SDS011;55959;51.244;5.724;2024-02-14T10:33:42;3.80;;;2.20;;
68921;SDS011;55959;51.244;5.724;2024-02-14T10:36:09;3.17;;;2.30;;
68921;SDS011;55959;51.244;5.724;2024-02-14T10:38:37;2.10;;;1.90;;
68921;SDS011;55959;51.244;5.724;2024-02-14T10:41:05;2.50;;;1.70;;
68921;SDS011;55959;51.244;5.724;2024-02-14T10:43:32;2.27;;;1.97;;
68921;SDS011;55959;51.244;5.724;2024-02-14T10:46:04;2.20;;;1.77;;
68921;SDS011;55959;51.244;5.724;2024-02-14T10:48:34;6.00;;;1.80;;
68921;SDS011;55959;51.244;5.724;2024-02-14T10:51:03;2.00;;;1.60;;
68921;SDS011;55959;51.244;5.724;2024-02-14T10:53:32;2.00;;;1.80;;
68921;SDS011;55959;51.244;5.724;2024-02-14T10:55:59;1.53;;;1.43;;
68921;SDS011;55959;51.244;5.724;2024-02-14T10:58:28;2.47;;;1.60;;
68921;SDS011;55959;51.244;5.724;2024-02-14T11:00:56;2.27;;;1.73;;
68921;SDS011;55959;51.244;5.724;2024-02-14T11:03:22;1.93;;;1.47;;
68921;SDS011;55959;51.244;5.724;2024-02-14T11:05:48;2.13;;;1.60;;
68921;SDS011;55959;51.244;5.724;2024-02-14T11:08:24;2.07;;;1.63;;
68921;SDS011;55959;51.244;5.724;2024-02-14T11:10:54;2.93;;;1.60;;
68921;SDS011;55959;51.244;5.724;2024-02-14T11:13:21;2.53;;;1.30;;
68921;SDS011;55959;51.244;5.724;2024-02-14T11:15:53;2.23;;;1.60;;
68921;SDS011;55959;51.244;5.724;2024-02-14T11:18:25;2.27;;;1.60;;
68921;SDS011;55959;51.244;5.724;2024-02-14T11:20:54;1.60;;;1.30;;
68921;SDS011;55959;51.244;5.724;2024-02-14T11:23:22;1.50;;;1.30;;
68921;SDS011;55959;51.244;5.724;2024-02-14T11:25:48;1.60;;;1.37;;
68921;SDS011;55959;51.244;5.724;2024-02-14T11:28:25;1.73;;;1.30;;
68921;SDS011;55959;51.244;5.724;2024-02-14T11:30:51;2.40;;;1.53;;
68921;SDS011;55959;51.244;5.724;2024-02-14T11:35:48;2.47;;;1.20;;
68921;SDS011;55959;51.244;5.724;2024-02-14T11:38:27;2.27;;;1.37;;
68921;SDS011;55959;51.244;5.724;2024-02-14T11:40:55;1.57;;;1.10;;
68921;SDS011;55959;51.244;5.724;2024-02-14T11:43:24;1.17;;;0.90;;
68921;SDS011;55959;51.244;5.724;2024-02-14T11:45:50;1.60;;;1.17;;
68921;SDS011;55959;51.244;5.724;2024-02-14T11:48:17;1.23;;;1.13;;
68921;SDS011;55959;51.244;5.724;2024-02-14T11:50:45;1.13;;;1.10;;
68921;SDS011;55959;51.244;5.724;2024-02-14T11:53:15;1.53;;;1.43;;
68921;SDS011;55959;51.244;5.724;2024-02-14T11:55:46;1.13;;;1.03;;
68921;SDS011;55959;51.244;5.724;2024-02-14T11:58:13;2.77;;;1.33;;
68921;SDS011;55959;51.244;5.724;2024-02-14T12:00:42;1.13;;;1.03;;
68921;SDS011;55959;51.244;5.724;2024-02-14T12:03:15;1.57;;;1.13;;
68921;SDS011;55959;51.244;5.724;2024-02-14T12:05:43;1.03;;;1.03;;
68921;SDS011;55959;51.244;5.724;2024-02-14T12:08:12;1.97;;;1.20;;
68921;SDS011;55959;51.244;5.724;2024-02-14T12:10:39;1.57;;;1.10;;
68921;SDS011;55959;51.244;5.724;2024-02-14T12:13:10;1.50;;;1.10;;
68921;SDS011;55959;51.244;5.724;2024-02-14T12:15:38;2.43;;;1.20;;
68921;SDS011;55959;51.244;5.724;2024-02-14T12:18:10;1.40;;;1.20;;
68921;SDS011;55959;51.244;5.724;2024-02-14T12:20:37;2.20;;;1.20;;
68921;SDS011;55959;51.244;5.724;2024-02-14T12:23:03;1.60;;;1.30;;
68921;SDS011;55959;51.244;5.724;2024-02-14T12:25:33;1.10;;;1.00;;
68921;SDS011;55959;51.244;5.724;2024-02-14T12:27:59;1.13;;;1.03;;
68921;SDS011;55959;51.244;5.724;2024-02-14T12:30:35;0.83;;;0.83;;
68921;SDS011;55959;51.244;5.724;2024-02-14T12:33:14;0.97;;;0.87;;
68921;SDS011;55959;51.244;5.724;2024-02-14T12:35:47;1.10;;;1.00;;
68921;SDS011;55959;51.244;5.724;2024-02-14T12:38:14;0.80;;;0.80;;
68921;SDS011;55959;51.244;5.724;2024-02-14T12:40:41;0.93;;;0.80;;
68921;SDS011;55959;51.244;5.724;2024-02-14T12:43:08;0.93;;;0.83;;
68921;SDS011;55959;51.244;5.724;2024-02-14T12:45:38;0.90;;;0.60;;
68921;SDS011;55959;51.244;5.724;2024-02-14T12:48:05;1.80;;;0.90;;
68921;SDS011;55959;51.244;5.724;2024-02-14T12:50:33;0.47;;;0.47;;
68921;SDS011;55959;51.244;5.724;2024-02-14T12:53:00;0.97;;;0.60;;
68921;SDS011;55959;51.244;5.724;2024-02-14T12:55:27;0.70;;;0.70;;
68921;SDS011;55959;51.244;5.724;2024-02-14T12:57:54;1.07;;;0.87;;
68921;SDS011;55959;51.244;5.724;2024-02-14T13:00:23;0.90;;;0.70;;
68921;SDS011;55959;51.244;5.724;2024-02-14T13:02:49;0.60;;;0.50;;
68921;SDS011;55959;51.244;5.724;2024-02-14T13:05:15;0.70;;;0.60;;
68921;SDS011;55959;51.244;5.724;2024-02-14T13:07:42;0.40;;;0.40;;
68921;SDS011;55959;51.244;5.724;2024-02-14T13:10:08;1.27;;;0.60;;
68921;SDS011;55959;51.244;5.724;2024-02-14T13:12:35;0.70;;;0.50;;
68921;SDS011;55959;51.244;5.724;2024-02-14T13:15:02;1.50;;;0.40;;
68921;SDS011;55959;51.244;5.724;2024-02-14T13:17:29;0.30;;;0.30;;
68921;SDS011;55959;51.244;5.724;2024-02-14T13:19:55;0.47;;;0.47;;
68921;SDS011;55959;51.244;5.724;2024-02-14T13:22:20;0.40;;;0.40;;
68921;SDS011;55959;51.244;5.724;2024-02-14T13:24:46;0.87;;;0.60;;
68921;SDS011;55959;51.244;5.724;2024-02-14T13:27:12;0.70;;;0.53;;
68921;SDS011;55959;51.244;5.724;2024-02-14T13:29:39;0.50;;;0.50;;
68921;SDS011;55959;51.244;5.724;2024-02-14T13:32:05;0.63;;;0.47;;
68921;SDS011;55959;51.244;5.724;2024-02-14T13:34:32;0.80;;;0.47;;
68921;SDS011;55959;51.244;5.724;2024-02-14T13:36:59;0.70;;;0.60;;
68921;SDS011;55959;51.244;5.724;2024-02-14T13:39:25;0.53;;;0.40;;
68921;SDS011;55959;51.244;5.724;2024-02-14T13:41:51;0.30;;;0.30;;
68921;SDS011;55959;51.244;5.724;2024-02-14T13:44:17;0.43;;;0.40;;
68921;SDS011;55959;51.244;5.724;2024-02-14T13:46:44;0.47;;;0.43;;
68921;SDS011;55959;51.244;5.724;2024-02-14T13:49:15;0.40;;;0.30;;
68921;SDS011;55959;51.244;5.724;2024-02-14T13:51:46;0.70;;;0.40;;
68921;SDS011;55959;51.244;5.724;2024-02-14T13:54:15;0.80;;;0.50;;
68921;SDS011;55959;51.244;5.724;2024-02-14T13:56:41;0.97;;;0.60;;
68921;SDS011;55959;51.244;5.724;2024-02-14T13:59:06;0.57;;;0.57;;
68921;SDS011;55959;51.244;5.724;2024-02-14T14:01:32;0.67;;;0.67;;
68921;SDS011;55959;51.244;5.724;2024-02-14T14:03:58;1.63;;;0.93;;
68921;SDS011;55959;51.244;5.724;2024-02-14T14:06:24;0.80;;;0.70;;
68921;SDS011;55959;51.244;5.724;2024-02-14T14:08:50;0.60;;;0.60;;
68921;SDS011;55959;51.244;5.724;2024-02-14T14:11:19;0.90;;;0.60;;
68921;SDS011;55959;51.244;5.724;2024-02-14T14:13:45;0.60;;;0.60;;
68921;SDS011;55959;51.244;5.724;2024-02-14T14:16:13;0.70;;;0.70;;
68921;SDS011;55959;51.244;5.724;2024-02-14T14:18:40;1.33;;;0.87;;
68921;SDS011;55959;51.244;5.724;2024-02-14T14:21:06;0.70;;;0.70;;
68921;SDS011;55959;51.244;5.724;2024-02-14T14:23:32;0.97;;;0.60;;
68921;SDS011;55959;51.244;5.724;2024-02-14T14:25:58;1.03;;;0.90;;
68921;SDS011;55959;51.244;5.724;2024-02-14T14:28:25;1.10;;;0.83;;
68921;SDS011;55959;51.244;5.724;2024-02-14T14:30:52;1.57;;;0.90;;
68921;SDS011;55959;51.244;5.724;2024-02-14T14:33:21;0.80;;;0.80;;
68921;SDS011;55959;51.244;5.724;2024-02-14T14:35:47;1.17;;;1.00;;
68921;SDS011;55959;51.244;5.724;2024-02-14T14:38:18;0.90;;;0.90;;
68921;SDS011;55959;51.244;5.724;2024-02-14T14:40:47;1.07;;;0.80;;
68921;SDS011;55959;51.244;5.724;2024-02-14T14:43:18;0.93;;;0.83;;
68921;SDS011;55959;51.244;5.724;2024-02-14T14:45:46;1.67;;;1.10;;
68921;SDS011;55959;51.244;5.724;2024-02-14T14:48:12;1.20;;;1.10;;